Time;durP1;ratioP1;P1;durP2;ratioP2;P2;SDS_P1;SDS_P2;PMS_P1;PMS_P2;Temp;Humidity;BMP_temperature;BMP_pressure;BME280_temperature;BME280_humidity;BME280_pressure;Samples;Min_cycle;Max_cycle;Signal;HPM_P1;HPM_P2
2023/06/06 00:01:09;;;;;;;;;;;;;;;16.18;57.95;98030.63;5108562;28;19959;-63
2023/06/06 00:03:38;;;;;;;;;;;;;;;16.24;57.62;98032.78;5128753;27;19920;-65
2023/06/06 00:06:06;;;;;;;;;;;;;;;16.29;57.52;98029.00;5121064;27;20015;-64
2023/06/06 00:08:35;;;;;;;;;;;;;;;15.84;58.78;98029.16;5112233;28;19973;-65
2023/06/06 00:11:03;;;;;;;;;;;;;;;15.66;59.07;98026.66;5100507;28;20018;-63
2023/06/06 00:13:32;;;;;;;;;;;;;;;15.61;59.67;98032.34;5109950;27;19950;-63
2023/06/06 00:15:59;;;;;;;;;;;;;;;15.71;59.53;98029.19;5103288;28;19924;-62
2023/06/06 00:18:27;;;;;;;;;;;;;;;15.55;59.60;98030.94;5115176;27;19924;-63
2023/06/06 00:20:56;;;;;;;;;;;;;;;15.49;60.08;98024.09;5100612;28;19920;-69
2023/06/06 00:23:23;;;;;;;;;;;;;;;15.38;60.08;98022.94;5098277;27;19920;-63
2023/06/06 00:25:53;;;;;;;;;;;;;;;15.30;60.67;98027.38;5098904;28;19927;-63
2023/06/06 00:28:21;;;;;;;;;;;;;;;15.09;61.54;98034.84;5100708;28;19923;-63
2023/06/06 00:30:49;;;;;;;;;;;;;;;15.12;61.23;98032.22;5109676;27;19928;-65
2023/06/06 00:33:16;;;;;;;;;;;;;;;15.14;61.28;98027.22;5099403;28;20598;-63
2023/06/06 00:35:44;;;;;;;;;;;;;;;15.25;60.73;98018.59;5136721;27;19984;-63
2023/06/06 00:38:13;;;;;;;;;;;;;;;15.05;61.38;98029.25;5129815;27;20379;-63
2023/06/06 00:40:41;;;;;;;;;;;;;;;15.02;61.54;98027.19;5106218;28;20003;-65
2023/06/06 00:43:10;;;;;;;;;;;;;;;14.90;61.82;98025.19;5102955;28;20010;-63
2023/06/06 00:45:38;;;;;;;;;;;;;;;14.77;62.48;98020.03;5111244;28;19919;-64
2023/06/06 00:48:06;;;;;;;;;;;;;;;14.57;63.00;98016.19;5130105;27;19919;-64
2023/06/06 00:50:34;;;;;;;;;;;;;;;14.55;63.05;98018.47;5096893;28;19945;-63
2023/06/06 00:53:03;;;;;;;;;;;;;;;14.66;62.85;98017.72;5112986;27;19946;-65
2023/06/06 00:55:31;;;;;;;;;;;;;;;14.65;62.55;98023.53;5112729;28;19924;-65
2023/06/06 00:57:59;;;;;;;;;;;;;;;14.67;62.44;98021.25;5093942;28;19974;-63
2023/06/06 01:00:32;;;;;;;;;;;;;;;14.79;62.03;98023.22;5101535;27;19928;-66
2023/06/06 01:03:00;;;;;;;;;;;;;;;15.01;61.56;98020.09;5107308;27;19919;-65
2023/06/06 01:05:28;;;;;;;;;;;;;;;14.99;61.36;98027.88;5096034;28;19919;-63
2023/06/06 01:07:56;;;;;;;;;;;;;;;14.87;61.48;98022.34;5125289;27;19926;-63
2023/06/06 01:10:25;;;;;;;;;;;;;;;14.95;61.23;98032.41;5099431;27;19968;-67
2023/06/06 01:12:56;;;;;;;;;;;;;;;14.96;61.21;98023.06;5127103;27;19965;-64
2023/06/06 01:15:32;;;;;;;;;;;;;;;14.98;61.15;98020.00;5127371;27;19970;-64
2023/06/06 01:18:01;;;;;;;;;;;;;;;14.87;61.46;98023.16;5093078;28;19927;-63
2023/06/06 01:20:31;;;;;;;;;;;;;;;14.86;61.56;98020.75;5096032;28;19924;-63
2023/06/06 01:23:00;;;;;;;;;;;;;;;14.83;61.48;98014.00;5128580;27;20040;-63
2023/06/06 01:25:29;;;;;;;;;;;;;;;14.88;61.67;98021.22;5119458;27;20062;-65
2023/06/06 01:27:58;;;;;;;;;;;;;;;14.89;61.52;98022.81;5092483;28;19919;-64
2023/06/06 01:30:26;;;;;;;;;;;;;;;14.86;61.47;98020.75;5100917;28;19920;-64
2023/06/06 01:32:59;;;;;;;;;;;;;;;14.82;61.60;98022.56;5126245;27;19920;-70
2023/06/06 01:35:29;;;;;;;;;;;;;;;14.72;61.70;98018.31;5125572;27;19936;-63
2023/06/06 01:37:57;;;;;;;;;;;;;;;14.68;61.88;98014.63;5113527;27;20326;-63
2023/06/06 01:40:27;;;;;;;;;;;;;;;14.65;62.08;98016.13;5114464;27;19920;-64
2023/06/06 01:42:55;;;;;;;;;;;;;;;14.68;62.12;98018.16;5129954;27;19927;-71
2023/06/06 01:45:24;;;;;;;;;;;;;;;14.65;62.02;98007.91;5129846;27;19920;-63
2023/06/06 01:47:52;;;;;;;;;;;;;;;14.35;63.11;98018.09;5128401;27;19919;-62
2023/06/06 01:50:20;;;;;;;;;;;;;;;14.30;63.17;98010.09;5121658;27;19969;-63
2023/06/06 01:52:48;;;;;;;;;;;;;;;14.13;63.94;98011.03;5123922;27;19963;-63
2023/06/06 01:55:16;;;;;;;;;;;;;;;14.41;63.18;98016.75;5132417;27;19927;-63
2023/06/06 01:57:45;;;;;;;;;;;;;;;14.42;63.10;98017.56;5102403;28;19968;-67
2023/06/06 02:00:17;;;;;;;;;;;;;;;14.39;63.16;98018.25;5126256;27;19924;-63
2023/06/06 02:02:45;;;;;;;;;;;;;;;14.20;63.62;98026.09;5120811;27;19919;-62
2023/06/06 02:05:14;;;;;;;;;;;;;;;14.24;63.80;98018.84;5112146;28;19920;-63
2023/06/06 02:07:42;;;;;;;;;;;;;;;14.23;63.50;98012.56;5111606;28;19987;-64
2023/06/06 02:10:11;;;;;;;;;;;;;;;14.02;64.31;98026.19;5092620;28;19928;-64
2023/06/06 02:12:39;;;;;;;;;;;;;;;13.69;65.75;98020.59;5085312;28;19920;-63
2023/06/06 02:15:10;;;;;;;;;;;;;;;13.71;65.74;98023.00;5080334;28;19920;-63
2023/06/06 02:17:40;;;;;;;;;;;;;;;13.63;66.08;98017.25;5105649;27;19979;-63
2023/06/06 02:20:09;;;;;;;;;;;;;;;13.64;66.10;98020.78;5090094;28;19920;-62
2023/06/06 02:22:37;;;;;;;;;;;;;;;13.70;66.07;98015.94;5107424;28;19927;-63
2023/06/06 02:25:08;;;;;;;;;;;;;;;13.54;66.41;98011.03;5120256;27;19927;-66
2023/06/06 02:27:36;;;;;;;;;;;;;;;13.49;66.61;98013.94;5112958;27;20038;-63
2023/06/06 02:30:09;;;;;;;;;;;;;;;13.42;67.15;98010.91;5125447;27;20360;-63
2023/06/06 02:32:39;;;;;;;;;;;;;;;13.28;67.69;98004.88;5093705;28;19920;-63
2023/06/06 02:35:08;;;;;;;;;;;;;;;13.32;67.95;98006.63;5110968;28;19920;-64
2023/06/06 02:37:36;;;;;;;;;;;;;;;13.29;67.95;98017.38;5096583;27;19920;-63
2023/06/06 02:40:08;;;;;;;;;;;;;;;13.51;67.18;98006.22;5142768;27;19974;-63
2023/06/06 02:42:41;;;;;;;;;;;;;;;13.62;66.61;98006.66;5091798;28;19973;-63
2023/06/06 02:45:11;;;;;;;;;;;;;;;13.64;66.62;98007.16;5116322;27;19920;-63
2023/06/06 02:47:39;;;;;;;;;;;;;;;13.62;66.60;98007.44;5111295;27;19924;-63
2023/06/06 02:50:10;;;;;;;;;;;;;;;13.73;66.15;98007.09;5098532;28;19920;-64
2023/06/06 02:52:40;;;;;;;;;;;;;;;13.76;66.01;98004.50;5104041;27;20268;-62
2023/06/06 02:55:09;;;;;;;;;;;;;;;13.70;66.10;98010.47;5104315;28;20015;-63
2023/06/06 02:57:39;;;;;;;;;;;;;;;13.78;66.03;98012.34;5090589;27;19932;-63
2023/06/06 03:00:12;;;;;;;;;;;;;;;13.82;65.79;98018.75;5121806;27;20298;-63
2023/06/06 03:02:40;;;;;;;;;;;;;;;13.85;65.93;98015.38;5103778;28;20272;-63
2023/06/06 03:05:09;;;;;;;;;;;;;;;13.43;67.04;98011.72;5111240;28;20357;-63
2023/06/06 03:07:38;;;;;;;;;;;;;;;13.50;67.21;98009.28;5094841;28;19977;-66
2023/06/06 03:10:06;;;;;;;;;;;;;;;13.47;66.97;98013.47;5108214;28;20322;-63
2023/06/06 03:12:39;;;;;;;;;;;;;;;13.60;66.59;98012.44;5093446;28;19923;-64
2023/06/06 03:15:08;;;;;;;;;;;;;;;13.52;66.46;98016.00;5122474;27;19919;-63
2023/06/06 03:17:41;;;;;;;;;;;;;;;13.32;67.22;98017.53;5094245;28;19924;-64
2023/06/06 03:20:13;;;;;;;;;;;;;;;13.56;66.65;98014.22;5114364;28;19971;-63
2023/06/06 03:22:44;;;;;;;;;;;;;;;13.71;66.24;98017.53;5129719;27;19931;-63
2023/06/06 03:25:13;;;;;;;;;;;;;;;13.76;65.78;98025.53;5127460;28;19966;-63
2023/06/06 03:27:43;;;;;;;;;;;;;;;13.39;67.09;98027.16;5101065;28;19931;-63
2023/06/06 03:30:11;;;;;;;;;;;;;;;13.61;66.12;98024.16;5096437;28;19947;-63
2023/06/06 03:32:40;;;;;;;;;;;;;;;13.65;66.20;98030.56;5093586;28;19942;-63
2023/06/06 03:35:08;;;;;;;;;;;;;;;13.70;65.93;98027.66;5103040;28;19926;-63
2023/06/06 03:37:36;;;;;;;;;;;;;;;13.69;65.87;98036.16;5120192;28;19928;-63
2023/06/06 03:40:08;;;;;;;;;;;;;;;13.69;65.84;98038.88;5098304;28;19964;-67
2023/06/06 03:42:36;;;;;;;;;;;;;;;13.76;65.62;98037.25;5092948;28;19926;-63
2023/06/06 03:45:04;;;;;;;;;;;;;;;13.71;65.88;98042.13;5128001;27;19928;-64
2023/06/06 03:47:32;;;;;;;;;;;;;;;13.70;65.59;98044.03;5109173;28;19927;-63
2023/06/06 03:50:01;;;;;;;;;;;;;;;13.62;65.93;98048.41;5126078;28;19931;-63
2023/06/06 03:52:29;;;;;;;;;;;;;;;13.71;65.70;98039.38;5126016;27;19923;-63
2023/06/06 03:54:57;;;;;;;;;;;;;;;13.70;65.38;98046.78;5126022;28;19919;-65
2023/06/06 03:57:28;;;;;;;;;;;;;;;13.72;65.60;98049.16;5129794;27;20030;-66
2023/06/06 03:59:56;;;;;;;;;;;;;;;13.55;66.10;98047.31;5094295;28;19930;-63
2023/06/06 04:02:24;;;;;;;;;;;;;;;13.43;66.63;98053.47;5124880;27;19927;-62
2023/06/06 04:04:52;;;;;;;;;;;;;;;13.50;66.28;98050.22;5099818;28;20245;-63
2023/06/06 04:07:21;;;;;;;;;;;;;;;13.50;66.41;98044.78;5109376;28;19927;-64
2023/06/06 04:09:49;;;;;;;;;;;;;;;13.60;66.12;98045.22;5093303;28;19920;-64
2023/06/06 04:12:17;;;;;;;;;;;;;;;13.60;65.82;98039.75;5132610;27;19927;-62
2023/06/06 04:14:47;;;;;;;;;;;;;;;13.65;66.01;98048.88;5129277;27;19924;-63
2023/06/06 04:17:15;;;;;;;;;;;;;;;13.78;65.59;98037.72;5122988;27;19924;-64
2023/06/06 04:19:42;;;;;;;;;;;;;;;13.82;65.48;98040.59;5128004;27;19920;-63
2023/06/06 04:22:10;;;;;;;;;;;;;;;13.89;65.10;98043.63;5112186;28;19980;-63
2023/06/06 04:24:39;;;;;;;;;;;;;;;13.98;64.93;98040.84;5130617;27;19962;-64
2023/06/06 04:27:07;;;;;;;;;;;;;;;13.86;64.96;98045.09;5108326;28;19919;-63
2023/06/06 04:29:35;;;;;;;;;;;;;;;13.96;65.17;98035.72;5095021;27;20032;-63
2023/06/06 04:32:03;;;;;;;;;;;;;;;14.08;64.43;98044.00;5124067;27;19920;-63
2023/06/06 04:34:31;;;;;;;;;;;;;;;13.95;64.93;98045.03;5119509;27;20310;-63
2023/06/06 04:37:03;;;;;;;;;;;;;;;14.04;64.63;98037.59;5093422;28;20026;-63
2023/06/06 04:39:32;;;;;;;;;;;;;;;13.97;64.83;98036.53;5123807;27;19919;-64
2023/06/06 04:42:04;;;;;;;;;;;;;;;13.93;64.90;98030.91;5103438;27;19920;-70
2023/06/06 04:44:32;;;;;;;;;;;;;;;14.05;64.45;98033.72;5085545;28;19932;-66
2023/06/06 04:47:03;;;;;;;;;;;;;;;14.20;64.05;98035.06;5114526;27;19919;-63
2023/06/06 04:49:35;;;;;;;;;;;;;;;14.09;64.65;98039.34;5114403;28;19920;-63
2023/06/06 04:52:05;;;;;;;;;;;;;;;14.06;65.23;98035.34;5089246;28;19920;-63
2023/06/06 04:54:33;;;;;;;;;;;;;;;14.18;64.90;98036.56;5100553;28;19920;-63
2023/06/06 04:57:01;;;;;;;;;;;;;;;14.30;64.57;98031.16;5111606;27;19993;-63
2023/06/06 04:59:32;;;;;;;;;;;;;;;14.22;65.00;98035.56;5097710;28;19973;-63
2023/06/06 05:02:01;;;;;;;;;;;;;;;14.37;64.47;98034.16;5120052;27;19919;-62
2023/06/06 05:04:31;;;;;;;;;;;;;;;14.36;64.86;98027.88;5126047;27;19919;-64
2023/06/06 05:06:59;;;;;;;;;;;;;;;14.24;65.30;98024.28;5102808;28;20014;-63
2023/06/06 05:09:27;;;;;;;;;;;;;;;14.14;65.70;98020.81;5110129;27;20361;-62
2023/06/06 05:11:56;;;;;;;;;;;;;;;14.25;65.74;98020.41;5110232;27;19923;-62
2023/06/06 05:14:24;;;;;;;;;;;;;;;14.23;65.84;98017.22;5110324;27;19966;-61
2023/06/06 05:16:53;;;;;;;;;;;;;;;14.25;65.93;98015.75;5104187;27;19959;-62
2023/06/06 05:19:21;;;;;;;;;;;;;;;14.23;66.12;98022.69;5115094;27;19928;-62
2023/06/06 05:21:49;;;;;;;;;;;;;;;14.34;65.88;98018.44;5109970;27;20422;-61
2023/06/06 05:24:17;;;;;;;;;;;;;;;14.39;66.06;98023.69;5117136;27;19964;-62
2023/06/06 05:26:45;;;;;;;;;;;;;;;14.59;65.50;98014.69;5104797;27;19955;-62
2023/06/06 05:29:12;;;;;;;;;;;;;;;14.63;65.30;98023.84;5113778;27;19946;-66
2023/06/06 05:31:40;;;;;;;;;;;;;;;14.67;65.32;98021.25;5110338;27;19942;-70
2023/06/06 05:34:09;;;;;;;;;;;;;;;14.75;64.88;98016.81;5114309;27;19970;-65
2023/06/06 05:36:37;;;;;;;;;;;;;;;14.80;65.21;98027.56;5113722;27;20010;-61
2023/06/06 05:39:05;;;;;;;;;;;;;;;14.88;64.90;98026.69;5116074;27;19969;-61
2023/06/06 05:41:32;;;;;;;;;;;;;;;14.96;64.65;98028.53;5119081;27;20035;-61
2023/06/06 05:44:00;;;;;;;;;;;;;;;14.86;65.34;98020.75;5110043;27;19920;-61
2023/06/06 05:46:28;;;;;;;;;;;;;;;14.84;65.14;98032.03;5113121;27;19972;-65
2023/06/06 05:48:56;;;;;;;;;;;;;;;14.92;64.83;98027.63;5109793;28;19926;-62
2023/06/06 05:51:26;;;;;;;;;;;;;;;14.93;64.62;98023.75;5110453;28;20015;-63
2023/06/06 05:53:56;;;;;;;;;;;;;;;14.90;64.45;98024.41;5103123;28;19920;-62
2023/06/06 05:56:40;;;;;;;;;;;;;;;14.89;64.48;98028.28;5103943;28;19928;-64
2023/06/06 05:59:07;;;;;;;;;;;;;;;14.97;64.40;98026.59;5102159;28;19935;-62
2023/06/06 06:01:36;;;;;;;;;;;;;;;15.13;64.01;98025.63;5112954;28;19955;-66
2023/06/06 06:04:04;;;;;;;;;;;;;;;15.15;63.65;98031.56;5106653;28;19923;-61
2023/06/06 06:06:34;;;;;;;;;;;;;;;15.24;63.69;98026.00;5091681;28;19924;-62
2023/06/06 06:09:03;;;;;;;;;;;;;;;15.28;63.19;98024.16;5092963;28;19941;-62
2023/06/06 06:11:31;;;;;;;;;;;;;;;15.42;62.36;98029.34;5107000;28;20257;-62
2023/06/06 06:13:59;;;;;;;;;;;;;;;15.54;62.46;98015.66;5105999;28;19920;-64
2023/06/06 06:16:27;;;;;;;;;;;;;;;15.61;60.94;98026.06;5096120;28;20333;-62
2023/06/06 06:18:55;;;;;;;;;;;;;;;15.41;61.71;98016.78;5106211;28;19926;-70
2023/06/06 06:21:24;;;;;;;;;;;;;;;15.53;61.47;98021.47;5106739;28;20446;-62
2023/06/06 06:23:53;;;;;;;;;;;;;;;15.54;61.47;98021.13;5108982;28;19946;-61
2023/06/06 06:26:21;;;;;;;;;;;;;;;15.67;61.53;98024.72;5111891;28;19923;-63
2023/06/06 06:28:53;;;;;;;;;;;;;;;15.85;61.24;98025.28;5094622;28;19919;-62
2023/06/06 06:31:21;;;;;;;;;;;;;;;15.79;60.98;98026.66;5110406;28;19920;-62
2023/06/06 06:33:49;;;;;;;;;;;;;;;15.74;61.16;98024.16;5102636;28;19923;-62
2023/06/06 06:36:17;;;;;;;;;;;;;;;15.78;61.04;98031.34;5107907;28;19930;-66
2023/06/06 06:38:44;;;;;;;;;;;;;;;15.81;60.79;98029.84;5123107;27;20325;-62
2023/06/06 06:41:13;;;;;;;;;;;;;;;15.84;60.94;98023.69;5129745;27;19973;-61
2023/06/06 06:43:41;;;;;;;;;;;;;;;15.88;60.75;98019.13;5111612;28;19973;-63
2023/06/06 06:46:15;;;;;;;;;;;;;;;15.82;60.13;98024.03;5127986;27;19923;-68
2023/06/06 06:48:45;;;;;;;;;;;;;;;15.78;60.32;98022.31;5104901;28;19972;-61
2023/06/06 06:51:14;;;;;;;;;;;;;;;15.93;59.89;98021.63;5105958;28;20269;-62
2023/06/06 06:53:41;;;;;;;;;;;;;;;15.81;60.29;98019.69;5104941;28;19919;-63
2023/06/06 06:56:09;;;;;;;;;;;;;;;15.81;60.37;98024.38;5112067;28;19959;-62
2023/06/06 06:58:39;;;;;;;;;;;;;;;15.71;60.70;98026.44;5103266;28;19920;-61
2023/06/06 07:01:07;;;;;;;;;;;;;;;15.76;60.86;98028.13;5110995;28;20383;-62
2023/06/06 07:03:35;;;;;;;;;;;;;;;15.71;61.12;98025.63;5112189;28;19927;-62
2023/06/06 07:06:07;;;;;;;;;;;;;;;15.85;60.67;98033.50;5118699;27;19951;-62
2023/06/06 07:08:35;;;;;;;;;;;;;;;15.89;60.64;98026.19;5108483;28;20043;-61
2023/06/06 07:11:03;;;;;;;;;;;;;;;15.78;60.90;98030.53;5095536;28;19920;-61
2023/06/06 07:13:31;;;;;;;;;;;;;;;15.66;61.38;98034.88;5106469;28;19920;-61
2023/06/06 07:16:01;;;;;;;;;;;;;;;15.77;61.33;98037.16;5104050;28;19974;-61
2023/06/06 07:18:28;;;;;;;;;;;;;;;15.76;61.31;98033.59;5110012;28;20603;-62
2023/06/06 07:20:56;;;;;;;;;;;;;;;15.95;60.76;98030.31;5095405;28;19919;-61
2023/06/06 07:23:25;;;;;;;;;;;;;;;16.00;61.03;98026.53;5109150;28;19919;-62
2023/06/06 07:25:53;;;;;;;;;;;;;;;15.96;60.84;98026.41;5108224;28;20380;-62
2023/06/06 07:28:22;;;;;;;;;;;;;;;16.00;60.57;98030.06;5099288;28;20295;-61
2023/06/06 07:30:50;;;;;;;;;;;;;;;16.01;60.66;98034.41;5122074;28;19923;-61
2023/06/06 07:33:19;;;;;;;;;;;;;;;15.96;60.54;98035.44;5105390;28;19920;-62
2023/06/06 07:35:47;;;;;;;;;;;;;;;15.99;60.74;98025.75;5132290;27;20280;-66
2023/06/06 07:38:17;;;;;;;;;;;;;;;16.02;60.70;98036.00;5104298;28;19920;-61
2023/06/06 07:40:45;;;;;;;;;;;;;;;16.04;60.66;98027.44;5097990;28;19943;-63
2023/06/06 07:43:13;;;;;;;;;;;;;;;16.07;60.60;98032.22;5089693;28;20033;-62
2023/06/06 07:45:41;;;;;;;;;;;;;;;16.12;60.43;98024.56;5109493;28;19972;-62
2023/06/06 07:48:08;;;;;;;;;;;;;;;16.14;60.61;98033.25;5099195;28;20327;-62
2023/06/06 07:50:37;;;;;;;;;;;;;;;16.24;60.18;98027.31;5111473;28;19924;-67
2023/06/06 07:53:05;;;;;;;;;;;;;;;16.27;60.16;98035.97;5105950;28;19920;-63
2023/06/06 07:55:35;;;;;;;;;;;;;;;16.35;60.11;98032.28;5110301;28;20418;-62
2023/06/06 07:58:10;;;;;;;;;;;;;;;16.49;59.27;98032.72;5108554;28;19923;-61
2023/06/06 08:00:38;;;;;;;;;;;;;;;16.31;59.94;98031.41;5142146;27;20356;-62
2023/06/06 08:03:06;;;;;;;;;;;;;;;16.46;59.52;98036.97;5080931;28;19928;-61
2023/06/06 08:05:36;;;;;;;;;;;;;;;16.39;59.90;98033.19;5084656;28;19926;-61
2023/06/06 08:08:06;;;;;;;;;;;;;;;16.42;59.89;98033.31;5110860;27;19924;-62
2023/06/06 08:10:34;;;;;;;;;;;;;;;16.48;59.94;98036.63;5098117;28;19920;-69
2023/06/06 08:13:03;;;;;;;;;;;;;;;16.49;59.81;98041.75;5108946;28;19924;-62
2023/06/06 08:15:31;;;;;;;;;;;;;;;16.52;59.36;98042.22;5110865;28;19931;-62
2023/06/06 08:17:59;;;;;;;;;;;;;;;16.60;59.38;98038.53;5104824;28;20281;-61
2023/06/06 08:20:27;;;;;;;;;;;;;;;16.70;59.16;98038.81;5113932;28;19920;-61
2023/06/06 08:22:55;;;;;;;;;;;;;;;16.89;58.65;98038.22;5093104;28;19942;-63
2023/06/06 08:25:24;;;;;;;;;;;;;;;17.07;58.88;98046.94;5114860;28;19936;-65
2023/06/06 08:27:52;;;;;;;;;;;;;;;17.08;58.16;98043.03;5110683;28;19919;-62
2023/06/06 08:30:21;;;;;;;;;;;;;;;17.16;58.11;98033.06;5106526;28;19942;-61
2023/06/06 08:32:52;;;;;;;;;;;;;;;17.16;57.82;98038.56;5110305;27;19920;-61
2023/06/06 08:35:20;;;;;;;;;;;;;;;17.14;57.85;98038.88;5108197;28;19926;-62
2023/06/06 08:37:52;;;;;;;;;;;;;;;17.16;57.87;98036.63;5131080;27;20006;-61
2023/06/06 08:40:20;;;;;;;;;;;;;;;17.18;57.71;98042.53;5104945;28;19966;-61
2023/06/06 08:42:52;;;;;;;;;;;;;;;17.14;58.24;98040.84;5114386;28;19919;-63
2023/06/06 08:45:20;;;;;;;;;;;;;;;17.25;57.35;98041.91;5105701;28;20401;-61
2023/06/06 08:47:48;;;;;;;;;;;;;;;17.11;58.00;98045.09;5117335;28;19919;-67
2023/06/06 08:50:16;;;;;;;;;;;;;;;16.98;58.45;98040.81;5114398;28;20272;-62
2023/06/06 08:52:44;;;;;;;;;;;;;;;16.96;58.43;98046.66;5112135;28;19992;-61
2023/06/06 08:55:15;;;;;;;;;;;;;;;17.03;59.18;98046.03;5105697;28;19940;-65
2023/06/06 08:57:43;;;;;;;;;;;;;;;17.08;58.85;98045.78;5117534;27;20249;-62
2023/06/06 09:00:21;;;;;;;;;;;;;;;17.14;58.81;98051.81;5105608;28;20377;-65
2023/06/06 09:02:51;;;;;;;;;;;;;;;17.14;58.83;98049.88;5103794;28;20022;-64
2023/06/06 09:05:20;;;;;;;;;;;;;;;17.15;58.95;98048.75;5104234;28;19993;-61
2023/06/06 09:07:49;;;;;;;;;;;;;;;17.26;58.99;98055.31;5100215;28;20283;-63
2023/06/06 09:10:17;;;;;;;;;;;;;;;17.34;58.76;98050.00;5100082;28;19924;-61
2023/06/06 09:12:46;;;;;;;;;;;;;;;17.35;58.75;98057.09;5119550;27;19919;-62
2023/06/06 09:15:15;;;;;;;;;;;;;;;17.47;58.62;98065.25;5106223;28;20345;-63
2023/06/06 09:17:45;;;;;;;;;;;;;;;17.60;58.20;98066.78;5106624;27;19924;-61
2023/06/06 09:20:14;;;;;;;;;;;;;;;17.55;58.47;98072.53;5110146;28;19923;-61
2023/06/06 09:22:43;;;;;;;;;;;;;;;17.55;58.71;98073.34;5107650;28;19920;-61
2023/06/06 09:25:16;;;;;;;;;;;;;;;17.54;58.91;98076.44;5115945;27;19923;-63
2023/06/06 09:27:45;;;;;;;;;;;;;;;17.45;58.49;98067.56;5105934;27;19920;-61
2023/06/06 09:30:21;;;;;;;;;;;;;;;17.35;59.16;98066.13;5103423;28;20077;-62
2023/06/06 09:32:53;;;;;;;;;;;;;;;17.38;58.94;98073.66;5102394;27;20328;-62
2023/06/06 09:35:22;;;;;;;;;;;;;;;17.47;58.87;98076.22;5100262;28;20361;-61
2023/06/06 09:37:50;;;;;;;;;;;;;;;17.49;58.81;98073.94;5118960;27;19969;-62
2023/06/06 09:40:18;;;;;;;;;;;;;;;17.56;58.88;98076.88;5112992;27;20336;-62
2023/06/06 09:42:46;;;;;;;;;;;;;;;17.52;59.03;98070.47;5104935;28;19920;-61
2023/06/06 09:45:15;;;;;;;;;;;;;;;17.69;58.44;98069.38;5108765;27;20344;-61
2023/06/06 09:47:45;;;;;;;;;;;;;;;17.75;58.29;98065.22;5100934;28;19920;-61
2023/06/06 09:50:16;;;;;;;;;;;;;;;17.82;57.95;98065.41;5106695;28;19961;-62
2023/06/06 09:52:44;;;;;;;;;;;;;;;18.00;57.92;98060.31;5112059;27;19927;-61
2023/06/06 09:55:12;;;;;;;;;;;;;;;18.10;57.72;98065.28;5112210;28;19924;-63
2023/06/06 09:57:40;;;;;;;;;;;;;;;17.92;58.66;98064.88;5109605;28;19936;-61
2023/06/06 10:00:10;;;;;;;;;;;;;;;17.79;58.77;98061.41;5105881;28;20014;-61
2023/06/06 10:02:42;;;;;;;;;;;;;;;17.69;59.46;98070.16;5115306;27;20022;-62
2023/06/06 10:05:13;;;;;;;;;;;;;;;17.71;59.44;98070.59;5109374;27;19923;-62
2023/06/06 10:07:41;;;;;;;;;;;;;;;17.74;59.67;98069.13;5110689;28;19923;-61
2023/06/06 10:10:11;;;;;;;;;;;;;;;17.68;59.55;98065.00;5111663;28;19919;-62
2023/06/06 10:12:41;;;;;;;;;;;;;;;17.63;60.33;98066.09;5112742;28;20010;-61
2023/06/06 10:15:11;;;;;;;;;;;;;;;17.49;60.66;98063.75;5102012;27;19920;-64
2023/06/06 10:17:41;;;;;;;;;;;;;;;17.58;60.41;98071.84;5100231;28;20027;-61
2023/06/06 10:20:11;;;;;;;;;;;;;;;17.58;60.31;98066.34;5116408;28;19991;-62
2023/06/06 10:22:41;;;;;;;;;;;;;;;17.57;60.64;98070.22;5098296;28;19920;-69
2023/06/06 10:25:11;;;;;;;;;;;;;;;17.69;60.34;98066.63;5115569;28;20030;-61
2023/06/06 10:27:46;;;;;;;;;;;;;;;17.79;59.89;98066.13;5093372;28;19966;-61
2023/06/06 10:30:17;;;;;;;;;;;;;;;17.78;60.04;98068.03;5117899;27;19932;-61
2023/06/06 10:32:48;;;;;;;;;;;;;;;17.79;60.12;98071.63;5107672;28;19965;-61
2023/06/06 10:35:16;;;;;;;;;;;;;;;17.79;60.42;98072.41;5111812;27;20353;-65
2023/06/06 10:37:47;;;;;;;;;;;;;;;17.80;60.78;98074.00;5112046;28;19959;-64
2023/06/06 10:40:15;;;;;;;;;;;;;;;17.73;60.39;98078.50;5105783;28;19923;-61
2023/06/06 10:42:43;;;;;;;;;;;;;;;17.89;60.17;98073.81;5111974;28;19919;-62
2023/06/06 10:45:11;;;;;;;;;;;;;;;17.70;60.44;98087.44;5104913;28;19959;-62
2023/06/06 10:47:42;;;;;;;;;;;;;;;17.74;60.49;98074.63;5108775;27;20331;-62
2023/06/06 10:50:21;;;;;;;;;;;;;;;17.66;61.09;98070.84;5088775;28;19931;-62
2023/06/06 10:52:58;;;;;;;;;;;;;;;17.76;60.95;98073.09;5118017;27;19926;-61
2023/06/06 10:55:39;;;;;;;;;;;;;;;17.67;61.24;98068.91;5090648;28;19977;-61
2023/06/06 10:58:09;;;;;;;;;;;;;;;17.82;61.61;98075.59;5109255;27;20400;-62
2023/06/06 11:00:40;;;;;;;;;;;;;;;17.88;60.98;98071.41;5102697;28;19919;-61
2023/06/06 11:03:10;;;;;;;;;;;;;;;17.88;60.88;98074.16;5102409;27;20027;-61
2023/06/06 11:05:57;;;;;;;;;;;;;;;18.04;60.64;98080.44;5104039;28;19943;-61
2023/06/06 11:08:33;;;;;;;;;;;;;;;18.11;60.33;98077.91;5064774;28;20023;-63
2023/06/06 11:11:23;;;;;;;;;;;;;;;18.17;59.81;98070.97;5106277;28;19927;-62
2023/06/06 11:13:56;;;;;;;;;;;;;;;18.19;59.98;98074.13;5113263;28;20275;-66
2023/06/06 11:16:27;;;;;;;;;;;;;;;17.97;60.61;98066.53;5107979;28;19920;-61
2023/06/06 11:19:01;;;;;;;;;;;;;;;18.04;60.58;98077.69;5100728;28;19920;-68
2023/06/06 11:21:29;;;;;;;;;;;;;;;17.89;61.48;98075.75;5094518;28;19920;-63
2023/06/06 11:23:58;;;;;;;;;;;;;;;17.91;61.56;98079.75;5094539;28;19924;-61
2023/06/06 11:26:26;;;;;;;;;;;;;;;18.16;60.55;98080.34;5093822;28;19962;-61
2023/06/06 11:28:55;;;;;;;;;;;;;;;18.21;60.18;98080.06;5121488;28;19935;-61
2023/06/06 11:31:23;;;;;;;;;;;;;;;18.28;60.05;98071.22;5112330;28;19919;-61
2023/06/06 11:33:51;;;;;;;;;;;;;;;18.54;59.31;98073.38;5110226;28;19930;-61
2023/06/06 11:36:20;;;;;;;;;;;;;;;18.57;58.68;98076.19;5103210;28;20319;-61
2023/06/06 11:38:48;;;;;;;;;;;;;;;18.61;58.99;98073.50;5102767;28;19920;-62
2023/06/06 11:41:17;;;;;;;;;;;;;;;18.67;58.90;98072.06;5106344;28;19955;-62
2023/06/06 11:43:51;;;;;;;;;;;;;;;18.64;58.86;98080.22;5107089;28;19924;-61
2023/06/06 11:46:19;;;;;;;;;;;;;;;18.66;59.09;98073.22;5107982;28;19920;-63
2023/06/06 11:48:47;;;;;;;;;;;;;;;18.58;59.42;98077.75;5110190;28;19927;-60
2023/06/06 11:51:14;;;;;;;;;;;;;;;18.68;59.17;98078.41;5102959;28;19920;-61
2023/06/06 11:53:42;;;;;;;;;;;;;;;18.60;59.43;98082.94;5111591;28;20605;-61
2023/06/06 11:56:14;;;;;;;;;;;;;;;18.49;60.18;98077.19;5111642;28;19924;-62
2023/06/06 11:58:46;;;;;;;;;;;;;;;18.39;60.48;98075.00;5106137;28;19931;-60
2023/06/06 12:01:15;;;;;;;;;;;;;;;18.22;61.00;98087.19;5097067;28;19966;-61
2023/06/06 12:03:43;;;;;;;;;;;;;;;18.16;61.07;98082.28;5106916;28;20399;-61
2023/06/06 12:06:11;;;;;;;;;;;;;;;18.13;61.29;98080.28;5100981;28;19938;-61
2023/06/06 12:08:39;;;;;;;;;;;;;;;18.15;61.65;98084.25;5095071;28;19920;-60
2023/06/06 12:11:20;;;;;;;;;;;;;;;18.25;61.23;98086.47;5098943;28;19924;-61
2023/06/06 12:13:50;;;;;;;;;;;;;;;18.29;60.78;98079.09;5104562;28;19919;-61
2023/06/06 12:16:22;;;;;;;;;;;;;;;18.35;60.58;98076.06;5100005;28;20032;-61
2023/06/06 12:18:50;;;;;;;;;;;;;;;18.26;60.27;98077.03;5107309;28;19965;-60
2023/06/06 12:21:18;;;;;;;;;;;;;;;18.24;61.02;98082.13;5110159;28;20025;-61
2023/06/06 12:23:46;;;;;;;;;;;;;;;18.14;61.80;98074.41;5093716;28;19919;-61
2023/06/06 12:26:16;;;;;;;;;;;;;;;18.11;62.02;98080.66;5109616;28;20273;-66
2023/06/06 12:28:54;;;;;;;;;;;;;;;18.22;61.50;98072.66;5099553;28;20376;-61
2023/06/06 12:31:23;;;;;;;;;;;;;;;18.20;61.50;98066.69;5123968;27;20361;-60
2023/06/06 12:33:51;;;;;;;;;;;;;;;18.42;60.28;98071.50;5106242;28;19926;-64
2023/06/06 12:36:25;;;;;;;;;;;;;;;18.32;60.99;98072.06;5107711;27;19932;-60
2023/06/06 12:38:59;;;;;;;;;;;;;;;18.24;60.75;98071.13;5113040;27;19920;-61
2023/06/06 12:41:39;;;;;;;;;;;;;;;18.30;60.71;98061.44;5118058;27;20026;-61
2023/06/06 12:44:11;;;;;;;;;;;;;;;18.26;60.65;98068.78;5116533;27;20167;-60
2023/06/06 12:46:39;;;;;;;;;;;;;;;18.24;60.19;98064.81;5110187;27;19923;-61
2023/06/06 12:49:08;;;;;;;;;;;;;;;18.38;59.92;98058.84;5132544;27;20350;-60
2023/06/06 12:51:35;;;;;;;;;;;;;;;18.36;60.18;98067.44;5118049;27;19920;-60
2023/06/06 12:54:03;;;;;;;;;;;;;;;18.52;59.79;98059.16;5115765;27;19928;-61
2023/06/06 12:56:31;;;;;;;;;;;;;;;18.62;59.95;98058.59;5117473;27;19955;-61
2023/06/06 12:58:59;;;;;;;;;;;;;;;18.68;60.00;98046.16;5115964;27;20307;-60